sensor_id;sensor_type;location;lat;lon;timestamp;temperature;humidity
38488;DHT22;57384;51.986;4.458;2023-09-19T00:00:08;16.50;70.00
38488;DHT22;57384;51.986;4.458;2023-09-19T00:02:35;16.50;70.00
38488;DHT22;57384;51.986;4.458;2023-09-19T00:05:05;16.40;69.90
38488;DHT22;57384;51.986;4.458;2023-09-19T00:07:34;16.40;69.90
38488;DHT22;57384;51.986;4.458;2023-09-19T00:10:00;16.40;70.00
38488;DHT22;57384;51.986;4.458;2023-09-19T00:12:27;16.40;70.00
38488;DHT22;57384;51.986;4.458;2023-09-19T00:14:53;16.40;70.00
38488;DHT22;57384;51.986;4.458;2023-09-19T00:17:20;16.40;70.00
38488;DHT22;57384;51.986;4.458;2023-09-19T00:19:48;16.40;69.90
38488;DHT22;57384;51.986;4.458;2023-09-19T00:22:15;16.40;70.00
38488;DHT22;57384;51.986;4.458;2023-09-19T00:24:42;16.30;69.90
38488;DHT22;57384;51.986;4.458;2023-09-19T00:27:08;16.30;70.00
38488;DHT22;57384;51.986;4.458;2023-09-19T00:29:35;16.40;70.00
38488;DHT22;57384;51.986;4.458;2023-09-19T00:32:03;16.30;69.90
38488;DHT22;57384;51.986;4.458;2023-09-19T00:34:34;16.30;70.00
38488;DHT22;57384;51.986;4.458;2023-09-19T00:37:00;16.30;70.00
38488;DHT22;57384;51.986;4.458;2023-09-19T00:39:27;16.30;70.00
38488;DHT22;57384;51.986;4.458;2023-09-19T00:41:53;16.20;70.00
38488;DHT22;57384;51.986;4.458;2023-09-19T00:44:20;16.20;69.90
38488;DHT22;57384;51.986;4.458;2023-09-19T00:46:47;16.20;70.00
38488;DHT22;57384;51.986;4.458;2023-09-19T00:49:13;16.20;70.10
38488;DHT22;57384;51.986;4.458;2023-09-19T00:51:40;16.20;70.20
38488;DHT22;57384;51.986;4.458;2023-09-19T00:54:07;16.20;70.30
38488;DHT22;57384;51.986;4.458;2023-09-19T00:56:34;16.20;70.30
38488;DHT22;57384;51.986;4.458;2023-09-19T00:59:01;16.10;70.10
38488;DHT22;57384;51.986;4.458;2023-09-19T01:01:31;16.10;70.20
38488;DHT22;57384;51.986;4.458;2023-09-19T01:03:58;16.10;70.30
38488;DHT22;57384;51.986;4.458;2023-09-19T01:06:24;16.00;70.50
38488;DHT22;57384;51.986;4.458;2023-09-19T01:08:51;16.00;70.50
38488;DHT22;57384;51.986;4.458;2023-09-19T01:11:35;16.00;70.50
38488;DHT22;57384;51.986;4.458;2023-09-19T01:22:11;16.00;70.70
38488;DHT22;57384;51.986;4.458;2023-09-19T01:30:26;15.90;70.90
38488;DHT22;57384;51.986;4.458;2023-09-19T01:32:57;15.90;70.90
38488;DHT22;57384;51.986;4.458;2023-09-19T01:35:24;15.90;71.00
38488;DHT22;57384;51.986;4.458;2023-09-19T01:37:51;15.90;71.10
38488;DHT22;57384;51.986;4.458;2023-09-19T01:40:19;15.90;71.20
38488;DHT22;57384;51.986;4.458;2023-09-19T01:43:05;15.90;71.20
38488;DHT22;57384;51.986;4.458;2023-09-19T01:48:46;15.90;71.30
38488;DHT22;57384;51.986;4.458;2023-09-19T01:51:21;15.90;71.30
38488;DHT22;57384;51.986;4.458;2023-09-19T01:53:55;15.90;71.30
38488;DHT22;57384;51.986;4.458;2023-09-19T01:56:50;15.90;71.20
38488;DHT22;57384;51.986;4.458;2023-09-19T01:59:21;15.90;71.30
38488;DHT22;57384;51.986;4.458;2023-09-19T02:01:52;15.90;71.20
38488;DHT22;57384;51.986;4.458;2023-09-19T02:04:19;15.80;71.10
38488;DHT22;57384;51.986;4.458;2023-09-19T02:06:46;15.80;71.10
38488;DHT22;57384;51.986;4.458;2023-09-19T02:09:13;15.80;71.10
38488;DHT22;57384;51.986;4.458;2023-09-19T02:11:40;15.80;71.10
38488;DHT22;57384;51.986;4.458;2023-09-19T02:14:07;15.80;70.90
38488;DHT22;57384;51.986;4.458;2023-09-19T02:16:34;15.80;70.90
38488;DHT22;57384;51.986;4.458;2023-09-19T02:19:01;15.80;70.90
38488;DHT22;57384;51.986;4.458;2023-09-19T02:21:27;15.70;71.00
38488;DHT22;57384;51.986;4.458;2023-09-19T02:23:54;15.70;71.10
38488;DHT22;57384;51.986;4.458;2023-09-19T02:26:20;15.70;71.10
38488;DHT22;57384;51.986;4.458;2023-09-19T02:28:49;15.70;71.20
38488;DHT22;57384;51.986;4.458;2023-09-19T02:31:16;15.70;71.20
38488;DHT22;57384;51.986;4.458;2023-09-19T02:33:43;15.70;71.20
38488;DHT22;57384;51.986;4.458;2023-09-19T02:36:09;15.70;71.30
38488;DHT22;57384;51.986;4.458;2023-09-19T02:38:39;15.60;71.90
38488;DHT22;57384;51.986;4.458;2023-09-19T02:41:05;15.70;71.40
38488;DHT22;57384;51.986;4.458;2023-09-19T02:43:32;15.70;71.40
38488;DHT22;57384;51.986;4.458;2023-09-19T02:45:59;15.60;71.30
38488;DHT22;57384;51.986;4.458;2023-09-19T02:48:25;15.60;71.40
38488;DHT22;57384;51.986;4.458;2023-09-19T02:50:52;15.60;71.30
38488;DHT22;57384;51.986;4.458;2023-09-19T02:53:19;15.70;71.40
38488;DHT22;57384;51.986;4.458;2023-09-19T02:55:47;15.70;71.40
38488;DHT22;57384;51.986;4.458;2023-09-19T02:58:13;15.70;71.50
38488;DHT22;57384;51.986;4.458;2023-09-19T03:00:40;15.70;71.50
38488;DHT22;57384;51.986;4.458;2023-09-19T03:03:07;15.60;71.50
38488;DHT22;57384;51.986;4.458;2023-09-19T03:05:34;15.70;71.50
38488;DHT22;57384;51.986;4.458;2023-09-19T03:08:01;15.70;71.60
38488;DHT22;57384;51.986;4.458;2023-09-19T03:10:28;15.70;71.60
38488;DHT22;57384;51.986;4.458;2023-09-19T03:12:54;15.60;72.20
38488;DHT22;57384;51.986;4.458;2023-09-19T03:15:21;15.60;71.60
38488;DHT22;57384;51.986;4.458;2023-09-19T03:17:49;15.70;71.70
38488;DHT22;57384;51.986;4.458;2023-09-19T03:20:18;15.60;71.70
38488;DHT22;57384;51.986;4.458;2023-09-19T03:22:45;15.70;71.70
38488;DHT22;57384;51.986;4.458;2023-09-19T03:25:12;15.70;71.70
38488;DHT22;57384;51.986;4.458;2023-09-19T03:27:39;15.70;71.80
38488;DHT22;57384;51.986;4.458;2023-09-19T03:30:06;15.70;71.90
38488;DHT22;57384;51.986;4.458;2023-09-19T03:32:44;15.70;71.80
38488;DHT22;57384;51.986;4.458;2023-09-19T03:35:11;15.70;71.90
38488;DHT22;57384;51.986;4.458;2023-09-19T03:37:43;15.70;71.80
38488;DHT22;57384;51.986;4.458;2023-09-19T03:40:11;15.70;71.80
38488;DHT22;57384;51.986;4.458;2023-09-19T03:42:39;15.70;71.70
38488;DHT22;57384;51.986;4.458;2023-09-19T03:45:07;15.70;71.70
38488;DHT22;57384;51.986;4.458;2023-09-19T03:47:40;15.70;71.70
38488;DHT22;57384;51.986;4.458;2023-09-19T03:50:07;15.70;71.90
38488;DHT22;57384;51.986;4.458;2023-09-19T03:52:34;15.70;71.80
38488;DHT22;57384;51.986;4.458;2023-09-19T03:55:00;15.70;71.90
38488;DHT22;57384;51.986;4.458;2023-09-19T03:57:27;15.70;72.00
38488;DHT22;57384;51.986;4.458;2023-09-19T03:59:53;15.70;72.10
38488;DHT22;57384;51.986;4.458;2023-09-19T04:02:20;15.70;72.20
38488;DHT22;57384;51.986;4.458;2023-09-19T04:04:49;15.70;72.30
38488;DHT22;57384;51.986;4.458;2023-09-19T04:07:17;15.70;72.30
38488;DHT22;57384;51.986;4.458;2023-09-19T04:09:44;15.70;72.40
38488;DHT22;57384;51.986;4.458;2023-09-19T04:12:11;15.70;72.40
38488;DHT22;57384;51.986;4.458;2023-09-19T04:14:37;15.70;72.50
38488;DHT22;57384;51.986;4.458;2023-09-19T04:17:07;15.70;72.50
38488;DHT22;57384;51.986;4.458;2023-09-19T04:19:33;15.70;72.60
38488;DHT22;57384;51.986;4.458;2023-09-19T04:22:00;15.70;72.60
38488;DHT22;57384;51.986;4.458;2023-09-19T04:24:27;15.80;72.70
38488;DHT22;57384;51.986;4.458;2023-09-19T04:26:56;15.70;72.60
38488;DHT22;57384;51.986;4.458;2023-09-19T04:29:22;15.70;72.80
38488;DHT22;57384;51.986;4.458;2023-09-19T04:31:49;15.70;72.80
38488;DHT22;57384;51.986;4.458;2023-09-19T04:34:16;15.70;72.80
38488;DHT22;57384;51.986;4.458;2023-09-19T04:36:43;15.70;72.90
38488;DHT22;57384;51.986;4.458;2023-09-19T04:39:09;15.70;72.90
38488;DHT22;57384;51.986;4.458;2023-09-19T04:41:36;15.70;72.90
38488;DHT22;57384;51.986;4.458;2023-09-19T04:44:03;15.80;73.00
38488;DHT22;57384;51.986;4.458;2023-09-19T04:46:29;15.70;73.00
38488;DHT22;57384;51.986;4.458;2023-09-19T04:48:56;15.70;73.00
38488;DHT22;57384;51.986;4.458;2023-09-19T04:51:23;15.70;73.00
38488;DHT22;57384;51.986;4.458;2023-09-19T04:53:49;15.70;73.10
38488;DHT22;57384;51.986;4.458;2023-09-19T04:56:16;15.70;73.70
38488;DHT22;57384;51.986;4.458;2023-09-19T04:58:42;15.80;73.20
38488;DHT22;57384;51.986;4.458;2023-09-19T05:01:09;15.80;73.20
38488;DHT22;57384;51.986;4.458;2023-09-19T05:03:35;15.70;73.10
38488;DHT22;57384;51.986;4.458;2023-09-19T05:06:02;15.70;73.80
38488;DHT22;57384;51.986;4.458;2023-09-19T05:08:31;15.70;73.30
38488;DHT22;57384;51.986;4.458;2023-09-19T05:11:03;15.80;73.20
38488;DHT22;57384;51.986;4.458;2023-09-19T05:13:30;15.80;73.30
38488;DHT22;57384;51.986;4.458;2023-09-19T05:16:00;15.70;73.20
38488;DHT22;57384;51.986;4.458;2023-09-19T05:18:27;15.80;73.30
38488;DHT22;57384;51.986;4.458;2023-09-19T05:21:01;15.80;73.40
38488;DHT22;57384;51.986;4.458;2023-09-19T05:23:28;15.80;73.30
38488;DHT22;57384;51.986;4.458;2023-09-19T05:25:54;15.80;73.30
38488;DHT22;57384;51.986;4.458;2023-09-19T05:28:21;15.80;73.20
38488;DHT22;57384;51.986;4.458;2023-09-19T05:30:47;15.80;73.30
38488;DHT22;57384;51.986;4.458;2023-09-19T05:33:14;15.80;73.30
38488;DHT22;57384;51.986;4.458;2023-09-19T05:35:40;15.80;73.30
38488;DHT22;57384;51.986;4.458;2023-09-19T05:38:07;15.90;73.40
38488;DHT22;57384;51.986;4.458;2023-09-19T05:40:34;15.90;73.40
38488;DHT22;57384;51.986;4.458;2023-09-19T05:43:01;15.90;73.40
38488;DHT22;57384;51.986;4.458;2023-09-19T05:45:28;15.90;73.40
38488;DHT22;57384;51.986;4.458;2023-09-19T05:48:11;15.80;73.40
38488;DHT22;57384;51.986;4.458;2023-09-19T05:50:38;15.90;73.60
38488;DHT22;57384;51.986;4.458;2023-09-19T05:53:05;15.90;73.50
38488;DHT22;57384;51.986;4.458;2023-09-19T05:55:32;15.90;73.50
38488;DHT22;57384;51.986;4.458;2023-09-19T05:57:59;15.90;73.50
38488;DHT22;57384;51.986;4.458;2023-09-19T06:00:26;15.90;73.50
38488;DHT22;57384;51.986;4.458;2023-09-19T06:02:57;15.90;73.50
38488;DHT22;57384;51.986;4.458;2023-09-19T06:05:25;15.90;73.60
38488;DHT22;57384;51.986;4.458;2023-09-19T06:07:52;15.90;73.60
38488;DHT22;57384;51.986;4.458;2023-09-19T06:10:19;15.90;73.60
38488;DHT22;57384;51.986;4.458;2023-09-19T06:12:46;16.00;73.60
38488;DHT22;57384;51.986;4.458;2023-09-19T06:15:13;16.00;73.70
38488;DHT22;57384;51.986;4.458;2023-09-19T06:17:41;16.00;73.70
38488;DHT22;57384;51.986;4.458;2023-09-19T06:20:08;16.00;73.40
38488;DHT22;57384;51.986;4.458;2023-09-19T06:22:35;16.00;73.50
38488;DHT22;57384;51.986;4.458;2023-09-19T06:25:01;16.00;73.60
38488;DHT22;57384;51.986;4.458;2023-09-19T06:27:28;16.00;73.70
38488;DHT22;57384;51.986;4.458;2023-09-19T06:29:54;16.00;73.70
38488;DHT22;57384;51.986;4.458;2023-09-19T06:32:27;16.10;73.80
38488;DHT22;57384;51.986;4.458;2023-09-19T06:34:53;16.10;73.90
38488;DHT22;57384;51.986;4.458;2023-09-19T06:37:21;16.10;73.80
38488;DHT22;57384;51.986;4.458;2023-09-19T06:39:47;16.10;73.80
38488;DHT22;57384;51.986;4.458;2023-09-19T06:42:14;16.10;73.80
38488;DHT22;57384;51.986;4.458;2023-09-19T06:44:40;16.20;73.90
38488;DHT22;57384;51.986;4.458;2023-09-19T06:47:07;16.20;73.90
38488;DHT22;57384;51.986;4.458;2023-09-19T06:49:33;16.20;73.90
38488;DHT22;57384;51.986;4.458;2023-09-19T06:52:00;16.30;74.00
38488;DHT22;57384;51.986;4.458;2023-09-19T06:54:26;16.20;73.90
38488;DHT22;57384;51.986;4.458;2023-09-19T06:56:53;16.30;74.00
38488;DHT22;57384;51.986;4.458;2023-09-19T06:59:19;16.30;74.00
38488;DHT22;57384;51.986;4.458;2023-09-19T07:01:46;16.30;74.00
38488;DHT22;57384;51.986;4.458;2023-09-19T07:04:12;16.40;74.00
38488;DHT22;57384;51.986;4.458;2023-09-19T07:06:39;16.40;74.00
38488;DHT22;57384;51.986;4.458;2023-09-19T07:09:05;16.40;74.00
38488;DHT22;57384;51.986;4.458;2023-09-19T07:11:32;16.40;74.00
38488;DHT22;57384;51.986;4.458;2023-09-19T07:13:58;16.50;74.00
38488;DHT22;57384;51.986;4.458;2023-09-19T07:16:25;16.50;74.00
38488;DHT22;57384;51.986;4.458;2023-09-19T07:18:54;16.60;74.00
38488;DHT22;57384;51.986;4.458;2023-09-19T07:21:21;16.60;74.00
38488;DHT22;57384;51.986;4.458;2023-09-19T07:23:48;16.60;73.90
38488;DHT22;57384;51.986;4.458;2023-09-19T07:26:14;16.60;73.90
38488;DHT22;57384;51.986;4.458;2023-09-19T07:28:41;16.70;74.00
38488;DHT22;57384;51.986;4.458;2023-09-19T07:31:08;16.70;74.00
38488;DHT22;57384;51.986;4.458;2023-09-19T07:33:34;16.80;74.00
38488;DHT22;57384;51.986;4.458;2023-09-19T07:36:01;16.80;74.00
38488;DHT22;57384;51.986;4.458;2023-09-19T07:38:28;16.80;73.90
38488;DHT22;57384;51.986;4.458;2023-09-19T07:41:00;16.90;73.90
38488;DHT22;57384;51.986;4.458;2023-09-19T07:43:27;16.90;73.90
38488;DHT22;57384;51.986;4.458;2023-09-19T07:45:53;17.00;73.90
38488;DHT22;57384;51.986;4.458;2023-09-19T07:48:20;17.00;73.90
38488;DHT22;57384;51.986;4.458;2023-09-19T07:50:46;17.10;73.80
38488;DHT22;57384;51.986;4.458;2023-09-19T07:53:15;17.10;73.80
38488;DHT22;57384;51.986;4.458;2023-09-19T07:55:42;17.20;73.80
38488;DHT22;57384;51.986;4.458;2023-09-19T07:58:10;17.20;73.80
38488;DHT22;57384;51.986;4.458;2023-09-19T08:00:39;17.30;73.80
38488;DHT22;57384;51.986;4.458;2023-09-19T08:03:05;17.40;73.70
38488;DHT22;57384;51.986;4.458;2023-09-19T08:05:32;17.40;73.60
38488;DHT22;57384;51.986;4.458;2023-09-19T08:07:58;17.50;73.60
38488;DHT22;57384;51.986;4.458;2023-09-19T08:10:25;17.60;73.40
38488;DHT22;57384;51.986;4.458;2023-09-19T08:12:51;17.70;73.40
38488;DHT22;57384;51.986;4.458;2023-09-19T08:15:19;17.80;73.30
38488;DHT22;57384;51.986;4.458;2023-09-19T08:17:46;17.80;73.20
38488;DHT22;57384;51.986;4.458;2023-09-19T08:20:14;17.90;73.20
38488;DHT22;57384;51.986;4.458;2023-09-19T08:22:40;18.00;73.10
38488;DHT22;57384;51.986;4.458;2023-09-19T08:25:07;18.10;73.10
38488;DHT22;57384;51.986;4.458;2023-09-19T08:27:33;18.10;73.00
38488;DHT22;57384;51.986;4.458;2023-09-19T08:30:00;18.20;72.90
38488;DHT22;57384;51.986;4.458;2023-09-19T08:32:26;18.30;72.80
38488;DHT22;57384;51.986;4.458;2023-09-19T08:34:54;18.30;72.80
38488;DHT22;57384;51.986;4.458;2023-09-19T08:37:21;18.50;72.70
38488;DHT22;57384;51.986;4.458;2023-09-19T08:39:47;18.50;72.50
38488;DHT22;57384;51.986;4.458;2023-09-19T08:42:14;18.60;72.40
38488;DHT22;57384;51.986;4.458;2023-09-19T08:44:40;18.70;72.40
38488;DHT22;57384;51.986;4.458;2023-09-19T08:47:13;18.70;72.20
38488;DHT22;57384;51.986;4.458;2023-09-19T08:52:42;18.80;72.00
38488;DHT22;57384;51.986;4.458;2023-09-19T08:55:13;18.80;71.90
38488;DHT22;57384;51.986;4.458;2023-09-19T08:57:41;18.80;71.90
38488;DHT22;57384;51.986;4.458;2023-09-19T09:00:09;18.90;71.80
38488;DHT22;57384;51.986;4.458;2023-09-19T09:02:39;18.90;71.80
38488;DHT22;57384;51.986;4.458;2023-09-19T09:05:06;18.90;71.80
38488;DHT22;57384;51.986;4.458;2023-09-19T09:07:33;19.00;71.80
38488;DHT22;57384;51.986;4.458;2023-09-19T09:10:02;19.00;71.80
38488;DHT22;57384;51.986;4.458;2023-09-19T09:12:29;19.10;71.70
38488;DHT22;57384;51.986;4.458;2023-09-19T09:14:56;19.10;71.50
38488;DHT22;57384;51.986;4.458;2023-09-19T09:17:26;19.20;71.50
38488;DHT22;57384;51.986;4.458;2023-09-19T09:19:53;19.20;71.40
38488;DHT22;57384;51.986;4.458;2023-09-19T09:22:20;19.30;71.30
38488;DHT22;57384;51.986;4.458;2023-09-19T09:24:55;19.40;71.20
38488;DHT22;57384;51.986;4.458;2023-09-19T09:27:22;19.50;71.20
38488;DHT22;57384;51.986;4.458;2023-09-19T09:29:49;19.50;71.00
38488;DHT22;57384;51.986;4.458;2023-09-19T09:32:30;19.60;70.90
38488;DHT22;57384;51.986;4.458;2023-09-19T09:34:59;19.60;70.90
38488;DHT22;57384;51.986;4.458;2023-09-19T09:37:26;19.80;70.80
38488;DHT22;57384;51.986;4.458;2023-09-19T09:39:55;19.80;70.70
38488;DHT22;57384;51.986;4.458;2023-09-19T09:42:33;19.90;70.60
38488;DHT22;57384;51.986;4.458;2023-09-19T09:45:16;19.90;70.30
38488;DHT22;57384;51.986;4.458;2023-09-19T09:47:47;20.00;70.30
38488;DHT22;57384;51.986;4.458;2023-09-19T09:50:14;20.00;70.80
38488;DHT22;57384;51.986;4.458;2023-09-19T09:52:49;20.20;70.20
38488;DHT22;57384;51.986;4.458;2023-09-19T09:55:16;20.20;70.10
38488;DHT22;57384;51.986;4.458;2023-09-19T09:57:42;20.30;70.00
38488;DHT22;57384;51.986;4.458;2023-09-19T10:00:10;20.30;69.90
38488;DHT22;57384;51.986;4.458;2023-09-19T10:02:36;20.40;69.80
38488;DHT22;57384;51.986;4.458;2023-09-19T10:07:41;20.40;69.70
38488;DHT22;57384;51.986;4.458;2023-09-19T10:10:08;20.50;69.70
38488;DHT22;57384;51.986;4.458;2023-09-19T10:12:35;20.60;69.80
38488;DHT22;57384;51.986;4.458;2023-09-19T10:15:07;20.60;69.50
38488;DHT22;57384;51.986;4.458;2023-09-19T10:17:36;20.70;69.60
38488;DHT22;57384;51.986;4.458;2023-09-19T10:20:03;20.80;69.40
38488;DHT22;57384;51.986;4.458;2023-09-19T10:22:30;20.90;69.90
38488;DHT22;57384;51.986;4.458;2023-09-19T10:24:59;20.90;69.20
38488;DHT22;57384;51.986;4.458;2023-09-19T10:27:29;20.90;69.00
38488;DHT22;57384;51.986;4.458;2023-09-19T10:29:57;21.00;68.80
38488;DHT22;57384;51.986;4.458;2023-09-19T10:32:25;21.10;68.60
38488;DHT22;57384;51.986;4.458;2023-09-19T10:34:54;21.20;68.70
38488;DHT22;57384;51.986;4.458;2023-09-19T10:37:23;21.30;68.70
38488;DHT22;57384;51.986;4.458;2023-09-19T10:39:52;21.40;68.40
38488;DHT22;57384;51.986;4.458;2023-09-19T10:42:20;21.40;68.20
38488;DHT22;57384;51.986;4.458;2023-09-19T10:44:52;21.60;68.00
38488;DHT22;57384;51.986;4.458;2023-09-19T10:47:19;21.70;67.70
38488;DHT22;57384;51.986;4.458;2023-09-19T10:49:46;21.70;67.60
38488;DHT22;57384;51.986;4.458;2023-09-19T10:52:19;21.80;67.60
38488;DHT22;57384;51.986;4.458;2023-09-19T10:54:49;21.80;67.30
38488;DHT22;57384;51.986;4.458;2023-09-19T10:57:22;21.90;67.00
38488;DHT22;57384;51.986;4.458;2023-09-19T11:00:08;21.90;66.90
38488;DHT22;57384;51.986;4.458;2023-09-19T11:02:35;22.00;66.90
38488;DHT22;57384;51.986;4.458;2023-09-19T11:05:12;22.00;66.90
38488;DHT22;57384;51.986;4.458;2023-09-19T11:07:58;22.00;66.60
38488;DHT22;57384;51.986;4.458;2023-09-19T11:10:47;22.10;66.70
38488;DHT22;57384;51.986;4.458;2023-09-19T11:13:27;22.20;66.80
38488;DHT22;57384;51.986;4.458;2023-09-19T11:27:10;22.20;66.20
38488;DHT22;57384;51.986;4.458;2023-09-19T11:29:37;22.20;66.10
38488;DHT22;57384;51.986;4.458;2023-09-19T11:32:06;22.20;66.10
38488;DHT22;57384;51.986;4.458;2023-09-19T11:40:07;22.20;65.80
38488;DHT22;57384;51.986;4.458;2023-09-19T11:42:46;22.20;65.70
38488;DHT22;57384;51.986;4.458;2023-09-19T11:48:08;22.20;65.60
38488;DHT22;57384;51.986;4.458;2023-09-19T11:50:42;22.10;65.50
38488;DHT22;57384;51.986;4.458;2023-09-19T11:53:11;22.20;65.60
38488;DHT22;57384;51.986;4.458;2023-09-19T11:55:39;22.10;65.50
38488;DHT22;57384;51.986;4.458;2023-09-19T11:58:07;22.10;65.40
38488;DHT22;57384;51.986;4.458;2023-09-19T12:00:35;22.00;65.40
38488;DHT22;57384;51.986;4.458;2023-09-19T12:03:11;22.10;65.40
38488;DHT22;57384;51.986;4.458;2023-09-19T12:05:38;22.00;65.30
38488;DHT22;57384;51.986;4.458;2023-09-19T12:08:05;22.00;65.30
38488;DHT22;57384;51.986;4.458;2023-09-19T12:10:32;22.10;65.30
38488;DHT22;57384;51.986;4.458;2023-09-19T12:12:59;22.10;65.30
38488;DHT22;57384;51.986;4.458;2023-09-19T12:15:26;22.10;65.30
38488;DHT22;57384;51.986;4.458;2023-09-19T12:17:54;22.10;65.10
38488;DHT22;57384;51.986;4.458;2023-09-19T12:20:20;22.10;65.20
38488;DHT22;57384;51.986;4.458;2023-09-19T12:22:47;22.20;65.20
38488;DHT22;57384;51.986;4.458;2023-09-19T12:25:14;22.20;65.20
38488;DHT22;57384;51.986;4.458;2023-09-19T12:27:44;22.30;65.10
38488;DHT22;57384;51.986;4.458;2023-09-19T12:30:12;22.30;65.00
38488;DHT22;57384;51.986;4.458;2023-09-19T12:32:39;22.30;65.00
38488;DHT22;57384;51.986;4.458;2023-09-19T12:35:07;22.40;64.90
38488;DHT22;57384;51.986;4.458;2023-09-19T12:37:33;22.30;64.90
38488;DHT22;57384;51.986;4.458;2023-09-19T12:40:08;22.30;64.90
38488;DHT22;57384;51.986;4.458;2023-09-19T12:42:35;22.40;64.80
38488;DHT22;57384;51.986;4.458;2023-09-19T12:45:02;22.40;64.70
38488;DHT22;57384;51.986;4.458;2023-09-19T12:47:33;22.40;64.80
38488;DHT22;57384;51.986;4.458;2023-09-19T12:52:40;22.40;64.60
38488;DHT22;57384;51.986;4.458;2023-09-19T12:55:06;22.50;64.50
38488;DHT22;57384;51.986;4.458;2023-09-19T12:57:34;22.50;64.40
38488;DHT22;57384;51.986;4.458;2023-09-19T13:00:04;22.50;64.40
38488;DHT22;57384;51.986;4.458;2023-09-19T13:02:31;22.50;64.40
38488;DHT22;57384;51.986;4.458;2023-09-19T13:04:58;22.50;64.20
38488;DHT22;57384;51.986;4.458;2023-09-19T13:07:41;22.60;64.30
38488;DHT22;57384;51.986;4.458;2023-09-19T13:10:07;22.60;64.20
38488;DHT22;57384;51.986;4.458;2023-09-19T13:12:35;22.50;64.20
38488;DHT22;57384;51.986;4.458;2023-09-19T13:15:12;22.50;64.30
38488;DHT22;57384;51.986;4.458;2023-09-19T13:17:43;22.50;64.20
38488;DHT22;57384;51.986;4.458;2023-09-19T13:20:21;22.50;64.30
38488;DHT22;57384;51.986;4.458;2023-09-19T13:22:47;22.50;64.20
38488;DHT22;57384;51.986;4.458;2023-09-19T13:25:18;22.50;64.30
38488;DHT22;57384;51.986;4.458;2023-09-19T13:27:47;22.50;64.30
38488;DHT22;57384;51.986;4.458;2023-09-19T13:30:14;22.50;64.30
38488;DHT22;57384;51.986;4.458;2023-09-19T13:32:41;22.40;64.20
38488;DHT22;57384;51.986;4.458;2023-09-19T13:35:07;22.40;64.50
38488;DHT22;57384;51.986;4.458;2023-09-19T13:37:35;22.40;64.30
38488;DHT22;57384;51.986;4.458;2023-09-19T13:40:01;22.30;64.30
38488;DHT22;57384;51.986;4.458;2023-09-19T13:42:28;22.30;64.50
38488;DHT22;57384;51.986;4.458;2023-09-19T13:44:55;22.30;64.70
38488;DHT22;57384;51.986;4.458;2023-09-19T13:47:21;22.20;64.70
38488;DHT22;57384;51.986;4.458;2023-09-19T13:49:48;22.20;64.80
38488;DHT22;57384;51.986;4.458;2023-09-19T13:52:14;22.20;64.80
38488;DHT22;57384;51.986;4.458;2023-09-19T13:54:41;22.10;64.80
38488;DHT22;57384;51.986;4.458;2023-09-19T13:57:07;22.10;65.00
38488;DHT22;57384;51.986;4.458;2023-09-19T13:59:34;22.10;64.70
38488;DHT22;57384;51.986;4.458;2023-09-19T14:02:00;22.10;64.60
38488;DHT22;57384;51.986;4.458;2023-09-19T14:04:27;22.00;64.60
38488;DHT22;57384;51.986;4.458;2023-09-19T14:06:53;22.00;64.80
38488;DHT22;57384;51.986;4.458;2023-09-19T14:09:20;22.00;65.00
38488;DHT22;57384;51.986;4.458;2023-09-19T14:11:48;21.90;65.20
38488;DHT22;57384;51.986;4.458;2023-09-19T14:14:14;21.90;65.40
38488;DHT22;57384;51.986;4.458;2023-09-19T14:16:41;21.90;65.50
38488;DHT22;57384;51.986;4.458;2023-09-19T14:19:07;21.80;65.60
38488;DHT22;57384;51.986;4.458;2023-09-19T14:21:34;21.80;65.70
38488;DHT22;57384;51.986;4.458;2023-09-19T14:24:01;21.80;65.90
38488;DHT22;57384;51.986;4.458;2023-09-19T14:26:27;21.70;65.90
38488;DHT22;57384;51.986;4.458;2023-09-19T14:28:54;21.70;66.00
38488;DHT22;57384;51.986;4.458;2023-09-19T14:31:23;21.70;66.10
38488;DHT22;57384;51.986;4.458;2023-09-19T14:33:55;21.70;66.10
38488;DHT22;57384;51.986;4.458;2023-09-19T14:36:22;21.70;66.10
38488;DHT22;57384;51.986;4.458;2023-09-19T14:38:52;21.70;66.00
38488;DHT22;57384;51.986;4.458;2023-09-19T14:41:19;21.60;66.00
38488;DHT22;57384;51.986;4.458;2023-09-19T14:43:46;21.60;66.00
38488;DHT22;57384;51.986;4.458;2023-09-19T14:46:12;21.60;66.00
38488;DHT22;57384;51.986;4.458;2023-09-19T14:48:39;21.50;65.90
38488;DHT22;57384;51.986;4.458;2023-09-19T14:51:06;21.50;65.90
38488;DHT22;57384;51.986;4.458;2023-09-19T14:53:33;21.50;65.90
38488;DHT22;57384;51.986;4.458;2023-09-19T14:56:01;21.50;65.90
38488;DHT22;57384;51.986;4.458;2023-09-19T14:58:28;21.40;65.90
38488;DHT22;57384;51.986;4.458;2023-09-19T15:00:54;21.40;65.90
38488;DHT22;57384;51.986;4.458;2023-09-19T15:03:27;21.30;65.90
38488;DHT22;57384;51.986;4.458;2023-09-19T15:05:59;21.30;65.90
38488;DHT22;57384;51.986;4.458;2023-09-19T15:08:26;21.30;65.90
38488;DHT22;57384;51.986;4.458;2023-09-19T15:10:52;21.30;65.90
38488;DHT22;57384;51.986;4.458;2023-09-19T15:13:19;21.30;65.90
38488;DHT22;57384;51.986;4.458;2023-09-19T15:15:46;21.30;66.00
38488;DHT22;57384;51.986;4.458;2023-09-19T15:18:12;21.20;65.90
38488;DHT22;57384;51.986;4.458;2023-09-19T15:20:48;21.20;65.90
38488;DHT22;57384;51.986;4.458;2023-09-19T15:23:14;21.20;65.90
38488;DHT22;57384;51.986;4.458;2023-09-19T15:25:48;21.20;66.00
38488;DHT22;57384;51.986;4.458;2023-09-19T15:28:14;21.10;66.00
38488;DHT22;57384;51.986;4.458;2023-09-19T15:30:41;21.10;66.00
38488;DHT22;57384;51.986;4.458;2023-09-19T15:33:07;21.10;66.10
38488;DHT22;57384;51.986;4.458;2023-09-19T15:35:34;21.00;66.10
38488;DHT22;57384;51.986;4.458;2023-09-19T15:38:00;21.00;66.10
38488;DHT22;57384;51.986;4.458;2023-09-19T15:40:27;21.00;66.30
38488;DHT22;57384;51.986;4.458;2023-09-19T15:42:56;21.00;66.50
38488;DHT22;57384;51.986;4.458;2023-09-19T15:45:24;21.00;66.70
38488;DHT22;57384;51.986;4.458;2023-09-19T15:47:51;21.00;66.80
38488;DHT22;57384;51.986;4.458;2023-09-19T15:50:18;20.90;66.90
38488;DHT22;57384;51.986;4.458;2023-09-19T15:52:44;20.90;67.00
38488;DHT22;57384;51.986;4.458;2023-09-19T15:55:11;20.90;67.10
38488;DHT22;57384;51.986;4.458;2023-09-19T15:57:39;20.80;67.10
38488;DHT22;57384;51.986;4.458;2023-09-19T16:00:06;20.80;67.10
38488;DHT22;57384;51.986;4.458;2023-09-19T16:02:33;20.80;67.30
38488;DHT22;57384;51.986;4.458;2023-09-19T16:04:59;20.80;67.30
38488;DHT22;57384;51.986;4.458;2023-09-19T16:07:26;20.80;67.30
38488;DHT22;57384;51.986;4.458;2023-09-19T16:09:55;20.70;67.30
38488;DHT22;57384;51.986;4.458;2023-09-19T16:12:21;20.70;67.40
38488;DHT22;57384;51.986;4.458;2023-09-19T16:14:48;20.70;67.50
38488;DHT22;57384;51.986;4.458;2023-09-19T16:17:15;20.60;67.50
38488;DHT22;57384;51.986;4.458;2023-09-19T16:19:44;20.60;68.20